sensor_id;sensor_type;location;lat;lon;timestamp;P1;durP1;ratioP1;P2;durP2;ratioP2
7515;SDS011;3799;47.184;8.538;2024-01-06T00:01:42;0.43;;;0.05;;
7515;SDS011;3799;47.184;8.538;2024-01-06T00:04:09;0.88;;;0.43;;
7515;SDS011;3799;47.184;8.538;2024-01-06T00:06:37;0.25;;;0.10;;
7515;SDS011;3799;47.184;8.538;2024-01-06T00:09:06;0.43;;;0.15;;
7515;SDS011;3799;47.184;8.538;2024-01-06T00:11:35;0.43;;;0.05;;
7515;SDS011;3799;47.184;8.538;2024-01-06T00:14:09;0.45;;;0.10;;
7515;SDS011;3799;47.184;8.538;2024-01-06T00:16:38;0.25;;;0.00;;
7515;SDS011;3799;47.184;8.538;2024-01-06T00:19:05;0.00;;;0.00;;
7515;SDS011;3799;47.184;8.538;2024-01-06T00:21:33;0.10;;;0.00;;
7515;SDS011;3799;47.184;8.538;2024-01-06T00:24:00;0.73;;;0.13;;
7515;SDS011;3799;47.184;8.538;2024-01-06T00:26:27;0.32;;;0.13;;
7515;SDS011;3799;47.184;8.538;2024-01-06T00:28:55;0.10;;;0.00;;
7515;SDS011;3799;47.184;8.538;2024-01-06T00:31:29;0.50;;;0.20;;
7515;SDS011;3799;47.184;8.538;2024-01-06T00:33:57;0.55;;;0.25;;
7515;SDS011;3799;47.184;8.538;2024-01-06T00:36:24;0.32;;;0.10;;
7515;SDS011;3799;47.184;8.538;2024-01-06T00:38:54;0.10;;;0.00;;
7515;SDS011;3799;47.184;8.538;2024-01-06T00:41:22;0.80;;;0.17;;
7515;SDS011;3799;47.184;8.538;2024-01-06T00:43:49;0.20;;;0.10;;
7515;SDS011;3799;47.184;8.538;2024-01-06T00:46:16;0.30;;;0.13;;
7515;SDS011;3799;47.184;8.538;2024-01-06T00:48:43;0.10;;;0.00;;
7515;SDS011;3799;47.184;8.538;2024-01-06T00:51:11;1.27;;;0.20;;
7515;SDS011;3799;47.184;8.538;2024-01-06T00:53:38;0.20;;;0.05;;
7515;SDS011;3799;47.184;8.538;2024-01-06T00:56:06;0.65;;;0.13;;
7515;SDS011;3799;47.184;8.538;2024-01-06T00:58:33;0.13;;;0.00;;
7515;SDS011;3799;47.184;8.538;2024-01-06T01:01:00;0.30;;;0.10;;
7515;SDS011;3799;47.184;8.538;2024-01-06T01:03:28;0.35;;;0.10;;
7515;SDS011;3799;47.184;8.538;2024-01-06T01:05:55;0.40;;;0.10;;
7515;SDS011;3799;47.184;8.538;2024-01-06T01:08:23;0.20;;;0.00;;
7515;SDS011;3799;47.184;8.538;2024-01-06T01:10:50;0.95;;;0.20;;
7515;SDS011;3799;47.184;8.538;2024-01-06T01:13:17;0.30;;;0.00;;
7515;SDS011;3799;47.184;8.538;2024-01-06T01:15:46;0.30;;;0.00;;
7515;SDS011;3799;47.184;8.538;2024-01-06T01:18:14;0.00;;;0.00;;
7515;SDS011;3799;47.184;8.538;2024-01-06T01:20:41;0.10;;;0.00;;
7515;SDS011;3799;47.184;8.538;2024-01-06T01:23:09;0.00;;;0.00;;
7515;SDS011;3799;47.184;8.538;2024-01-06T01:25:38;0.00;;;0.00;;
7515;SDS011;3799;47.184;8.538;2024-01-06T01:28:05;0.25;;;0.10;;
7515;SDS011;3799;47.184;8.538;2024-01-06T01:30:32;0.00;;;0.00;;
7515;SDS011;3799;47.184;8.538;2024-01-06T01:33:03;0.10;;;0.00;;
7515;SDS011;3799;47.184;8.538;2024-01-06T01:35:30;0.00;;;0.00;;
7515;SDS011;3799;47.184;8.538;2024-01-06T01:37:57;0.00;;;0.00;;
7515;SDS011;3799;47.184;8.538;2024-01-06T01:40:25;0.03;;;0.00;;
7515;SDS011;3799;47.184;8.538;2024-01-06T01:42:52;0.77;;;0.00;;
7515;SDS011;3799;47.184;8.538;2024-01-06T01:45:19;0.20;;;0.00;;
7515;SDS011;3799;47.184;8.538;2024-01-06T01:47:46;0.20;;;0.00;;
7515;SDS011;3799;47.184;8.538;2024-01-06T01:50:14;0.20;;;0.00;;
7515;SDS011;3799;47.184;8.538;2024-01-06T01:52:41;0.47;;;0.05;;
7515;SDS011;3799;47.184;8.538;2024-01-06T01:55:09;0.10;;;0.00;;
7515;SDS011;3799;47.184;8.538;2024-01-06T01:57:36;0.45;;;0.00;;
7515;SDS011;3799;47.184;8.538;2024-01-06T02:00:05;0.30;;;0.00;;
7515;SDS011;3799;47.184;8.538;2024-01-06T02:02:33;0.45;;;0.10;;
7515;SDS011;3799;47.184;8.538;2024-01-06T02:05:01;0.43;;;0.10;;
7515;SDS011;3799;47.184;8.538;2024-01-06T02:07:29;0.40;;;0.10;;
7515;SDS011;3799;47.184;8.538;2024-01-06T02:09:58;0.13;;;0.03;;
7515;SDS011;3799;47.184;8.538;2024-01-06T02:12:25;0.13;;;0.00;;
7515;SDS011;3799;47.184;8.538;2024-01-06T02:14:53;0.65;;;0.10;;
7515;SDS011;3799;47.184;8.538;2024-01-06T02:17:21;0.38;;;0.10;;
7515;SDS011;3799;47.184;8.538;2024-01-06T02:19:48;0.40;;;0.10;;
7515;SDS011;3799;47.184;8.538;2024-01-06T02:22:16;0.10;;;0.00;;
7515;SDS011;3799;47.184;8.538;2024-01-06T02:24:46;0.15;;;0.08;;
7515;SDS011;3799;47.184;8.538;2024-01-06T02:27:14;0.45;;;0.08;;
7515;SDS011;3799;47.184;8.538;2024-01-06T02:29:41;0.20;;;0.00;;
7515;SDS011;3799;47.184;8.538;2024-01-06T02:32:11;0.90;;;0.20;;
7515;SDS011;3799;47.184;8.538;2024-01-06T02:34:43;0.20;;;0.00;;
7515;SDS011;3799;47.184;8.538;2024-01-06T02:37:11;0.73;;;0.20;;
7515;SDS011;3799;47.184;8.538;2024-01-06T02:39:43;0.47;;;0.30;;
7515;SDS011;3799;47.184;8.538;2024-01-06T02:42:10;0.75;;;0.13;;
7515;SDS011;3799;47.184;8.538;2024-01-06T02:44:37;0.55;;;0.13;;
7515;SDS011;3799;47.184;8.538;2024-01-06T02:47:05;0.05;;;0.00;;
7515;SDS011;3799;47.184;8.538;2024-01-06T02:49:34;0.10;;;0.00;;
7515;SDS011;3799;47.184;8.538;2024-01-06T02:52:01;0.40;;;0.10;;
7515;SDS011;3799;47.184;8.538;2024-01-06T02:54:29;0.50;;;0.30;;
7515;SDS011;3799;47.184;8.538;2024-01-06T02:56:56;0.22;;;0.10;;
7515;SDS011;3799;47.184;8.538;2024-01-06T02:59:26;0.50;;;0.20;;
7515;SDS011;3799;47.184;8.538;2024-01-06T03:01:54;0.30;;;0.10;;
7515;SDS011;3799;47.184;8.538;2024-01-06T03:04:21;0.70;;;0.13;;
7515;SDS011;3799;47.184;8.538;2024-01-06T03:06:49;0.17;;;0.00;;
7515;SDS011;3799;47.184;8.538;2024-01-06T03:09:20;0.30;;;0.03;;
7515;SDS011;3799;47.184;8.538;2024-01-06T03:11:47;0.63;;;0.10;;
7515;SDS011;3799;47.184;8.538;2024-01-06T03:14:16;0.25;;;0.10;;
7515;SDS011;3799;47.184;8.538;2024-01-06T03:19:14;0.20;;;0.00;;
7515;SDS011;3799;47.184;8.538;2024-01-06T03:21:41;0.57;;;0.17;;
7515;SDS011;3799;47.184;8.538;2024-01-06T03:24:09;0.60;;;0.20;;
7515;SDS011;3799;47.184;8.538;2024-01-06T03:26:36;0.75;;;0.30;;
7515;SDS011;3799;47.184;8.538;2024-01-06T03:29:03;0.30;;;0.10;;
7515;SDS011;3799;47.184;8.538;2024-01-06T03:31:31;0.68;;;0.20;;
7515;SDS011;3799;47.184;8.538;2024-01-06T03:33:58;0.82;;;0.15;;
7515;SDS011;3799;47.184;8.538;2024-01-06T03:36:27;0.70;;;0.20;;
7515;SDS011;3799;47.184;8.538;2024-01-06T03:38:54;0.68;;;0.00;;
7515;SDS011;3799;47.184;8.538;2024-01-06T03:41:21;0.80;;;0.20;;
7515;SDS011;3799;47.184;8.538;2024-01-06T03:43:48;0.65;;;0.25;;
7515;SDS011;3799;47.184;8.538;2024-01-06T03:46:16;0.73;;;0.25;;
7515;SDS011;3799;47.184;8.538;2024-01-06T03:48:43;0.47;;;0.10;;
7515;SDS011;3799;47.184;8.538;2024-01-06T03:51:12;0.75;;;0.30;;
7515;SDS011;3799;47.184;8.538;2024-01-06T03:53:39;0.70;;;0.20;;
7515;SDS011;3799;47.184;8.538;2024-01-06T03:56:07;0.63;;;0.10;;
7515;SDS011;3799;47.184;8.538;2024-01-06T03:58:34;1.02;;;0.32;;
7515;SDS011;3799;47.184;8.538;2024-01-06T04:01:02;0.35;;;0.10;;
7515;SDS011;3799;47.184;8.538;2024-01-06T04:03:30;0.65;;;0.25;;
7515;SDS011;3799;47.184;8.538;2024-01-06T04:05:58;1.00;;;0.30;;
7515;SDS011;3799;47.184;8.538;2024-01-06T04:08:25;0.70;;;0.40;;
7515;SDS011;3799;47.184;8.538;2024-01-06T04:10:55;2.00;;;0.30;;
7515;SDS011;3799;47.184;8.538;2024-01-06T04:13:26;0.52;;;0.20;;
7515;SDS011;3799;47.184;8.538;2024-01-06T04:15:55;0.85;;;0.20;;
7515;SDS011;3799;47.184;8.538;2024-01-06T04:18:22;0.90;;;0.20;;
7515;SDS011;3799;47.184;8.538;2024-01-06T04:20:49;1.20;;;0.22;;
7515;SDS011;3799;47.184;8.538;2024-01-06T04:23:18;0.50;;;0.20;;
7515;SDS011;3799;47.184;8.538;2024-01-06T04:25:49;0.80;;;0.35;;
7515;SDS011;3799;47.184;8.538;2024-01-06T04:28:17;1.15;;;0.40;;
7515;SDS011;3799;47.184;8.538;2024-01-06T04:30:45;0.70;;;0.20;;
7515;SDS011;3799;47.184;8.538;2024-01-06T04:33:12;1.55;;;0.40;;
7515;SDS011;3799;47.184;8.538;2024-01-06T04:35:39;2.83;;;0.43;;
7515;SDS011;3799;47.184;8.538;2024-01-06T04:38:07;0.73;;;0.20;;
7515;SDS011;3799;47.184;8.538;2024-01-06T04:40:35;1.30;;;0.40;;
7515;SDS011;3799;47.184;8.538;2024-01-06T04:43:03;0.82;;;0.13;;
7515;SDS011;3799;47.184;8.538;2024-01-06T04:45:30;0.70;;;0.38;;
7515;SDS011;3799;47.184;8.538;2024-01-06T04:48:00;1.35;;;0.38;;
7515;SDS011;3799;47.184;8.538;2024-01-06T04:50:27;5.95;;;0.40;;
7515;SDS011;3799;47.184;8.538;2024-01-06T04:52:54;0.57;;;0.20;;
7515;SDS011;3799;47.184;8.538;2024-01-06T04:55:22;0.20;;;0.13;;
7515;SDS011;3799;47.184;8.538;2024-01-06T04:57:49;0.85;;;0.22;;
7515;SDS011;3799;47.184;8.538;2024-01-06T05:00:16;0.90;;;0.30;;
7515;SDS011;3799;47.184;8.538;2024-01-06T05:02:44;0.77;;;0.30;;
7515;SDS011;3799;47.184;8.538;2024-01-06T05:05:11;0.65;;;0.13;;
7515;SDS011;3799;47.184;8.538;2024-01-06T05:07:39;0.90;;;0.30;;
7515;SDS011;3799;47.184;8.538;2024-01-06T05:10:06;0.77;;;0.20;;
7515;SDS011;3799;47.184;8.538;2024-01-06T05:12:34;1.25;;;0.52;;
7515;SDS011;3799;47.184;8.538;2024-01-06T05:15:04;0.55;;;0.20;;
7515;SDS011;3799;47.184;8.538;2024-01-06T05:17:32;1.63;;;0.28;;
7515;SDS011;3799;47.184;8.538;2024-01-06T05:19:59;0.50;;;0.10;;
7515;SDS011;3799;47.184;8.538;2024-01-06T05:22:27;0.93;;;0.30;;
7515;SDS011;3799;47.184;8.538;2024-01-06T05:24:54;0.50;;;0.10;;
7515;SDS011;3799;47.184;8.538;2024-01-06T05:27:28;1.08;;;0.40;;
7515;SDS011;3799;47.184;8.538;2024-01-06T05:29:58;0.60;;;0.20;;
7515;SDS011;3799;47.184;8.538;2024-01-06T05:32:25;0.70;;;0.22;;
7515;SDS011;3799;47.184;8.538;2024-01-06T05:34:53;1.23;;;0.20;;
7515;SDS011;3799;47.184;8.538;2024-01-06T05:37:20;1.17;;;0.50;;
7515;SDS011;3799;47.184;8.538;2024-01-06T05:39:48;0.80;;;0.30;;
7515;SDS011;3799;47.184;8.538;2024-01-06T05:42:15;1.08;;;0.32;;
7515;SDS011;3799;47.184;8.538;2024-01-06T05:44:43;0.70;;;0.20;;
7515;SDS011;3799;47.184;8.538;2024-01-06T05:47:11;1.00;;;0.50;;
7515;SDS011;3799;47.184;8.538;2024-01-06T05:49:41;0.75;;;0.30;;
7515;SDS011;3799;47.184;8.538;2024-01-06T05:52:15;0.52;;;0.13;;
7515;SDS011;3799;47.184;8.538;2024-01-06T05:54:42;0.45;;;0.20;;
7515;SDS011;3799;47.184;8.538;2024-01-06T05:57:11;1.27;;;0.43;;
7515;SDS011;3799;47.184;8.538;2024-01-06T05:59:39;0.98;;;0.30;;
7515;SDS011;3799;47.184;8.538;2024-01-06T06:02:07;1.08;;;0.40;;
7515;SDS011;3799;47.184;8.538;2024-01-06T06:04:34;0.68;;;0.28;;
7515;SDS011;3799;47.184;8.538;2024-01-06T06:07:02;1.38;;;0.40;;
7515;SDS011;3799;47.184;8.538;2024-01-06T06:09:32;1.27;;;0.60;;
7515;SDS011;3799;47.184;8.538;2024-01-06T06:12:01;2.20;;;0.50;;
7515;SDS011;3799;47.184;8.538;2024-01-06T06:14:28;0.75;;;0.20;;
7515;SDS011;3799;47.184;8.538;2024-01-06T06:16:56;1.02;;;0.40;;
7515;SDS011;3799;47.184;8.538;2024-01-06T06:19:23;0.88;;;0.32;;
7515;SDS011;3799;47.184;8.538;2024-01-06T06:21:51;1.17;;;0.52;;
7515;SDS011;3799;47.184;8.538;2024-01-06T06:24:19;1.08;;;0.28;;
7515;SDS011;3799;47.184;8.538;2024-01-06T06:26:46;1.73;;;0.38;;
7515;SDS011;3799;47.184;8.538;2024-01-06T06:29:14;0.70;;;0.35;;
7515;SDS011;3799;47.184;8.538;2024-01-06T06:31:43;1.27;;;0.40;;
7515;SDS011;3799;47.184;8.538;2024-01-06T06:34:11;0.70;;;0.20;;
7515;SDS011;3799;47.184;8.538;2024-01-06T06:36:39;0.80;;;0.40;;
7515;SDS011;3799;47.184;8.538;2024-01-06T06:39:06;1.52;;;0.47;;
7515;SDS011;3799;47.184;8.538;2024-01-06T06:41:34;1.02;;;0.40;;
7515;SDS011;3799;47.184;8.538;2024-01-06T06:44:01;1.13;;;0.43;;
7515;SDS011;3799;47.184;8.538;2024-01-06T06:46:28;1.00;;;0.30;;
7515;SDS011;3799;47.184;8.538;2024-01-06T06:48:55;1.92;;;0.60;;
7515;SDS011;3799;47.184;8.538;2024-01-06T06:51:23;0.82;;;0.50;;
7515;SDS011;3799;47.184;8.538;2024-01-06T06:53:54;1.35;;;0.32;;
7515;SDS011;3799;47.184;8.538;2024-01-06T06:56:21;1.13;;;0.38;;
7515;SDS011;3799;47.184;8.538;2024-01-06T06:58:48;1.95;;;0.47;;
7515;SDS011;3799;47.184;8.538;2024-01-06T07:01:19;1.48;;;0.50;;
7515;SDS011;3799;47.184;8.538;2024-01-06T07:03:52;1.00;;;0.30;;
7515;SDS011;3799;47.184;8.538;2024-01-06T07:06:21;1.58;;;0.40;;
7515;SDS011;3799;47.184;8.538;2024-01-06T07:08:51;0.95;;;0.40;;
7515;SDS011;3799;47.184;8.538;2024-01-06T07:11:18;0.90;;;0.30;;
7515;SDS011;3799;47.184;8.538;2024-01-06T07:13:46;1.42;;;0.50;;
7515;SDS011;3799;47.184;8.538;2024-01-06T07:16:13;0.80;;;0.20;;
7515;SDS011;3799;47.184;8.538;2024-01-06T07:18:45;1.52;;;0.57;;
7515;SDS011;3799;47.184;8.538;2024-01-06T07:21:13;1.02;;;0.50;;
7515;SDS011;3799;47.184;8.538;2024-01-06T07:23:40;1.80;;;0.73;;
7515;SDS011;3799;47.184;8.538;2024-01-06T07:26:10;0.90;;;0.30;;
7515;SDS011;3799;47.184;8.538;2024-01-06T07:28:37;1.70;;;0.40;;
7515;SDS011;3799;47.184;8.538;2024-01-06T07:31:05;0.93;;;0.43;;
7515;SDS011;3799;47.184;8.538;2024-01-06T07:33:34;1.05;;;0.50;;
7515;SDS011;3799;47.184;8.538;2024-01-06T07:36:02;0.95;;;0.40;;
7515;SDS011;3799;47.184;8.538;2024-01-06T07:38:29;1.00;;;0.45;;
7515;SDS011;3799;47.184;8.538;2024-01-06T07:40:58;1.70;;;0.40;;
7515;SDS011;3799;47.184;8.538;2024-01-06T07:43:25;1.00;;;0.22;;
7515;SDS011;3799;47.184;8.538;2024-01-06T07:45:53;1.60;;;0.50;;
7515;SDS011;3799;47.184;8.538;2024-01-06T07:48:21;0.80;;;0.25;;
7515;SDS011;3799;47.184;8.538;2024-01-06T07:50:49;1.23;;;0.40;;
7515;SDS011;3799;47.184;8.538;2024-01-06T07:53:16;1.38;;;0.40;;
7515;SDS011;3799;47.184;8.538;2024-01-06T07:55:44;2.00;;;0.63;;
7515;SDS011;3799;47.184;8.538;2024-01-06T07:58:11;2.05;;;0.50;;
7515;SDS011;3799;47.184;8.538;2024-01-06T08:00:38;1.60;;;0.45;;
7515;SDS011;3799;47.184;8.538;2024-01-06T08:03:06;1.30;;;0.40;;
7515;SDS011;3799;47.184;8.538;2024-01-06T08:05:33;2.58;;;0.60;;
7515;SDS011;3799;47.184;8.538;2024-01-06T08:08:01;1.77;;;0.73;;
7515;SDS011;3799;47.184;8.538;2024-01-06T08:10:28;1.77;;;0.73;;
7515;SDS011;3799;47.184;8.538;2024-01-06T08:12:55;1.40;;;0.68;;
7515;SDS011;3799;47.184;8.538;2024-01-06T08:15:23;1.60;;;0.75;;
7515;SDS011;3799;47.184;8.538;2024-01-06T08:17:50;1.60;;;0.38;;
7515;SDS011;3799;47.184;8.538;2024-01-06T08:20:17;1.58;;;0.70;;
7515;SDS011;3799;47.184;8.538;2024-01-06T08:22:48;2.35;;;0.70;;
7515;SDS011;3799;47.184;8.538;2024-01-06T08:25:15;2.28;;;0.70;;
7515;SDS011;3799;47.184;8.538;2024-01-06T08:27:44;2.28;;;1.02;;
7515;SDS011;3799;47.184;8.538;2024-01-06T08:30:11;1.13;;;0.50;;
7515;SDS011;3799;47.184;8.538;2024-01-06T08:32:39;1.48;;;0.60;;
7515;SDS011;3799;47.184;8.538;2024-01-06T08:35:09;2.47;;;1.20;;
7515;SDS011;3799;47.184;8.538;2024-01-06T08:37:37;2.85;;;1.05;;
7515;SDS011;3799;47.184;8.538;2024-01-06T08:40:04;2.70;;;1.13;;
7515;SDS011;3799;47.184;8.538;2024-01-06T08:42:32;2.20;;;0.80;;
7515;SDS011;3799;47.184;8.538;2024-01-06T08:44:59;1.73;;;0.85;;
7515;SDS011;3799;47.184;8.538;2024-01-06T08:47:26;1.50;;;0.52;;
7515;SDS011;3799;47.184;8.538;2024-01-06T08:49:54;2.40;;;1.17;;
7515;SDS011;3799;47.184;8.538;2024-01-06T08:52:22;1.75;;;0.80;;
7515;SDS011;3799;47.184;8.538;2024-01-06T08:54:49;1.73;;;0.90;;
7515;SDS011;3799;47.184;8.538;2024-01-06T08:57:16;2.72;;;0.93;;
7515;SDS011;3799;47.184;8.538;2024-01-06T08:59:44;1.70;;;0.63;;
7515;SDS011;3799;47.184;8.538;2024-01-06T09:02:12;1.67;;;0.75;;
7515;SDS011;3799;47.184;8.538;2024-01-06T09:04:39;2.50;;;0.93;;
7515;SDS011;3799;47.184;8.538;2024-01-06T09:07:06;1.27;;;0.63;;
7515;SDS011;3799;47.184;8.538;2024-01-06T09:09:33;4.65;;;0.90;;
7515;SDS011;3799;47.184;8.538;2024-01-06T09:12:01;1.75;;;0.70;;
7515;SDS011;3799;47.184;8.538;2024-01-06T09:14:28;1.25;;;0.50;;
7515;SDS011;3799;47.184;8.538;2024-01-06T09:16:57;1.83;;;0.60;;
7515;SDS011;3799;47.184;8.538;2024-01-06T09:19:24;2.00;;;0.70;;
7515;SDS011;3799;47.184;8.538;2024-01-06T09:21:52;1.30;;;0.47;;
7515;SDS011;3799;47.184;8.538;2024-01-06T09:24:20;1.55;;;0.57;;
7515;SDS011;3799;47.184;8.538;2024-01-06T09:26:47;1.90;;;0.70;;
7515;SDS011;3799;47.184;8.538;2024-01-06T09:29:16;1.15;;;0.50;;
7515;SDS011;3799;47.184;8.538;2024-01-06T09:31:47;1.27;;;0.40;;
7515;SDS011;3799;47.184;8.538;2024-01-06T09:34:14;2.53;;;0.57;;
7515;SDS011;3799;47.184;8.538;2024-01-06T09:36:42;1.17;;;0.40;;
7515;SDS011;3799;47.184;8.538;2024-01-06T09:39:09;1.98;;;0.80;;
7515;SDS011;3799;47.184;8.538;2024-01-06T09:41:37;1.50;;;0.50;;
7515;SDS011;3799;47.184;8.538;2024-01-06T09:44:04;2.25;;;0.60;;
7515;SDS011;3799;47.184;8.538;2024-01-06T09:46:32;1.25;;;0.43;;
7515;SDS011;3799;47.184;8.538;2024-01-06T09:48:59;1.88;;;0.80;;
7515;SDS011;3799;47.184;8.538;2024-01-06T09:51:28;2.30;;;0.82;;
7515;SDS011;3799;47.184;8.538;2024-01-06T09:53:59;2.40;;;0.70;;
7515;SDS011;3799;47.184;8.538;2024-01-06T09:56:28;1.83;;;0.43;;
7515;SDS011;3799;47.184;8.538;2024-01-06T09:58:56;2.08;;;0.82;;
7515;SDS011;3799;47.184;8.538;2024-01-06T10:01:23;1.90;;;0.68;;
7515;SDS011;3799;47.184;8.538;2024-01-06T10:03:51;1.65;;;0.77;;
7515;SDS011;3799;47.184;8.538;2024-01-06T10:06:19;1.25;;;0.43;;
7515;SDS011;3799;47.184;8.538;2024-01-06T10:08:48;1.42;;;0.43;;
7515;SDS011;3799;47.184;8.538;2024-01-06T10:11:16;1.90;;;0.52;;
7515;SDS011;3799;47.184;8.538;2024-01-06T10:13:44;1.25;;;0.60;;
7515;SDS011;3799;47.184;8.538;2024-01-06T10:16:12;1.02;;;0.40;;
7515;SDS011;3799;47.184;8.538;2024-01-06T10:18:39;1.40;;;0.40;;
7515;SDS011;3799;47.184;8.538;2024-01-06T10:21:07;1.48;;;0.43;;
7515;SDS011;3799;47.184;8.538;2024-01-06T10:23:35;2.05;;;0.68;;
7515;SDS011;3799;47.184;8.538;2024-01-06T10:26:03;1.40;;;0.60;;
7515;SDS011;3799;47.184;8.538;2024-01-06T10:28:31;2.53;;;0.55;;
7515;SDS011;3799;47.184;8.538;2024-01-06T10:30:59;1.40;;;0.70;;
7515;SDS011;3799;47.184;8.538;2024-01-06T10:33:28;2.15;;;0.73;;
7515;SDS011;3799;47.184;8.538;2024-01-06T10:35:56;1.58;;;0.60;;
7515;SDS011;3799;47.184;8.538;2024-01-06T10:38:24;1.38;;;0.70;;
7515;SDS011;3799;47.184;8.538;2024-01-06T10:40:58;2.28;;;1.20;;
7515;SDS011;3799;47.184;8.538;2024-01-06T10:43:26;1.83;;;0.80;;
7515;SDS011;3799;47.184;8.538;2024-01-06T10:45:55;5.57;;;1.20;;
7515;SDS011;3799;47.184;8.538;2024-01-06T10:48:25;1.52;;;0.68;;
7515;SDS011;3799;47.184;8.538;2024-01-06T10:50:53;2.08;;;0.90;;
7515;SDS011;3799;47.184;8.538;2024-01-06T10:53:22;2.38;;;0.70;;
7515;SDS011;3799;47.184;8.538;2024-01-06T10:55:53;2.30;;;0.93;;
7515;SDS011;3799;47.184;8.538;2024-01-06T10:58:22;2.15;;;0.85;;
7515;SDS011;3799;47.184;8.538;2024-01-06T11:00:49;2.38;;;1.00;;
7515;SDS011;3799;47.184;8.538;2024-01-06T11:03:17;2.05;;;0.90;;
7515;SDS011;3799;47.184;8.538;2024-01-06T11:05:45;2.25;;;1.02;;
7515;SDS011;3799;47.184;8.538;2024-01-06T11:08:12;2.88;;;1.05;;
7515;SDS011;3799;47.184;8.538;2024-01-06T11:10:40;2.35;;;0.80;;
7515;SDS011;3799;47.184;8.538;2024-01-06T11:13:11;1.83;;;0.85;;
7515;SDS011;3799;47.184;8.538;2024-01-06T11:15:43;3.08;;;1.00;;
7515;SDS011;3799;47.184;8.538;2024-01-06T11:18:34;3.72;;;0.88;;
7515;SDS011;3799;47.184;8.538;2024-01-06T11:23:45;2.13;;;0.85;;
7515;SDS011;3799;47.184;8.538;2024-01-06T11:26:13;1.13;;;0.43;;
7515;SDS011;3799;47.184;8.538;2024-01-06T11:28:45;2.15;;;0.40;;
7515;SDS011;3799;47.184;8.538;2024-01-06T11:31:13;1.27;;;0.55;;
7515;SDS011;3799;47.184;8.538;2024-01-06T11:33:41;1.48;;;0.60;;
7515;SDS011;3799;47.184;8.538;2024-01-06T11:36:16;1.40;;;0.50;;
7515;SDS011;3799;47.184;8.538;2024-01-06T11:38:47;1.35;;;0.47;;
7515;SDS011;3799;47.184;8.538;2024-01-06T11:42:04;1.48;;;0.60;;
7515;SDS011;3799;47.184;8.538;2024-01-06T11:44:22;0.68;;;0.38;;
7515;SDS011;3799;47.184;8.538;2024-01-06T11:46:50;0.80;;;0.20;;
7515;SDS011;3799;47.184;8.538;2024-01-06T11:49:20;0.50;;;0.10;;
7515;SDS011;3799;47.184;8.538;2024-01-06T11:51:48;1.02;;;0.20;;
7515;SDS011;3799;47.184;8.538;2024-01-06T11:54:15;0.75;;;0.20;;
7515;SDS011;3799;47.184;8.538;2024-01-06T11:56:43;1.10;;;0.25;;
7515;SDS011;3799;47.184;8.538;2024-01-06T11:59:11;0.70;;;0.28;;
7515;SDS011;3799;47.184;8.538;2024-01-06T12:01:39;1.13;;;0.35;;
7515;SDS011;3799;47.184;8.538;2024-01-06T12:04:06;1.33;;;0.50;;
7515;SDS011;3799;47.184;8.538;2024-01-06T12:06:34;1.02;;;0.28;;
7515;SDS011;3799;47.184;8.538;2024-01-06T12:11:32;1.35;;;0.30;;
7515;SDS011;3799;47.184;8.538;2024-01-06T12:13:59;1.20;;;0.35;;
7515;SDS011;3799;47.184;8.538;2024-01-06T12:16:27;0.70;;;0.20;;
7515;SDS011;3799;47.184;8.538;2024-01-06T12:18:55;1.25;;;0.13;;
7515;SDS011;3799;47.184;8.538;2024-01-06T12:21:24;0.30;;;0.10;;
7515;SDS011;3799;47.184;8.538;2024-01-06T12:23:51;0.70;;;0.17;;
7515;SDS011;3799;47.184;8.538;2024-01-06T12:26:19;0.68;;;0.38;;
7515;SDS011;3799;47.184;8.538;2024-01-06T12:28:47;1.02;;;0.10;;
7515;SDS011;3799;47.184;8.538;2024-01-06T12:31:15;0.40;;;0.10;;
7515;SDS011;3799;47.184;8.538;2024-01-06T12:33:43;2.72;;;0.20;;
7515;SDS011;3799;47.184;8.538;2024-01-06T12:36:10;1.23;;;0.20;;
7515;SDS011;3799;47.184;8.538;2024-01-06T12:38:52;0.30;;;0.10;;
7515;SDS011;3799;47.184;8.538;2024-01-06T12:41:19;0.85;;;0.15;;
7515;SDS011;3799;47.184;8.538;2024-01-06T12:43:47;0.40;;;0.10;;
7515;SDS011;3799;47.184;8.538;2024-01-06T12:46:14;0.63;;;0.17;;
7515;SDS011;3799;47.184;8.538;2024-01-06T12:48:42;0.32;;;0.15;;
7515;SDS011;3799;47.184;8.538;2024-01-06T12:51:09;0.77;;;0.10;;
7515;SDS011;3799;47.184;8.538;2024-01-06T12:53:37;1.02;;;0.22;;
7515;SDS011;3799;47.184;8.538;2024-01-06T12:56:04;0.52;;;0.17;;
7515;SDS011;3799;47.184;8.538;2024-01-06T12:58:32;0.80;;;0.13;;
7515;SDS011;3799;47.184;8.538;2024-01-06T13:01:00;0.10;;;0.00;;
7515;SDS011;3799;47.184;8.538;2024-01-06T13:03:29;0.52;;;0.10;;
7515;SDS011;3799;47.184;8.538;2024-01-06T13:05:56;0.35;;;0.05;;
7515;SDS011;3799;47.184;8.538;2024-01-06T13:08:24;1.65;;;0.30;;
7515;SDS011;3799;47.184;8.538;2024-01-06T13:10:51;0.32;;;0.15;;
7515;SDS011;3799;47.184;8.538;2024-01-06T13:13:19;0.68;;;0.15;;
7515;SDS011;3799;47.184;8.538;2024-01-06T13:15:46;2.80;;;0.10;;
7515;SDS011;3799;47.184;8.538;2024-01-06T13:18:14;2.05;;;0.32;;
7515;SDS011;3799;47.184;8.538;2024-01-06T13:20:43;0.45;;;0.10;;
7515;SDS011;3799;47.184;8.538;2024-01-06T13:23:10;2.33;;;0.10;;
7515;SDS011;3799;47.184;8.538;2024-01-06T13:25:38;0.75;;;0.20;;
7515;SDS011;3799;47.184;8.538;2024-01-06T13:28:08;2.17;;;0.10;;
7515;SDS011;3799;47.184;8.538;2024-01-06T13:30:35;2.80;;;0.08;;
7515;SDS011;3799;47.184;8.538;2024-01-06T13:33:03;4.68;;;0.40;;
7515;SDS011;3799;47.184;8.538;2024-01-06T13:35:31;1.73;;;0.28;;
7515;SDS011;3799;47.184;8.538;2024-01-06T13:37:58;3.00;;;0.20;;
7515;SDS011;3799;47.184;8.538;2024-01-06T13:40:25;2.15;;;0.28;;
7515;SDS011;3799;47.184;8.538;2024-01-06T13:42:53;0.63;;;0.13;;
7515;SDS011;3799;47.184;8.538;2024-01-06T13:45:20;3.05;;;0.25;;
7515;SDS011;3799;47.184;8.538;2024-01-06T13:47:48;0.73;;;0.10;;
7515;SDS011;3799;47.184;8.538;2024-01-06T13:50:16;0.70;;;0.17;;
7515;SDS011;3799;47.184;8.538;2024-01-06T13:52:43;0.30;;;0.10;;
7515;SDS011;3799;47.184;8.538;2024-01-06T13:55:12;1.08;;;0.10;;
7515;SDS011;3799;47.184;8.538;2024-01-06T13:57:39;1.25;;;0.20;;
7515;SDS011;3799;47.184;8.538;2024-01-06T14:00:08;1.45;;;0.20;;
7515;SDS011;3799;47.184;8.538;2024-01-06T14:02:37;0.80;;;0.25;;
7515;SDS011;3799;47.184;8.538;2024-01-06T14:05:06;0.77;;;0.28;;
7515;SDS011;3799;47.184;8.538;2024-01-06T14:07:37;0.63;;;0.30;;
7515;SDS011;3799;47.184;8.538;2024-01-06T14:10:07;1.08;;;0.30;;
7515;SDS011;3799;47.184;8.538;2024-01-06T14:12:34;0.32;;;0.20;;
7515;SDS011;3799;47.184;8.538;2024-01-06T14:15:01;1.95;;;0.35;;
7515;SDS011;3799;47.184;8.538;2024-01-06T14:17:30;1.98;;;0.30;;
7515;SDS011;3799;47.184;8.538;2024-01-06T14:19:57;2.47;;;0.40;;
7515;SDS011;3799;47.184;8.538;2024-01-06T14:22:25;1.65;;;0.30;;
7515;SDS011;3799;47.184;8.538;2024-01-06T14:24:53;1.00;;;0.20;;
7515;SDS011;3799;47.184;8.538;2024-01-06T14:27:20;0.60;;;0.22;;
7515;SDS011;3799;47.184;8.538;2024-01-06T14:29:49;0.88;;;0.30;;
7515;SDS011;3799;47.184;8.538;2024-01-06T14:32:16;1.58;;;0.40;;
7515;SDS011;3799;47.184;8.538;2024-01-06T14:34:43;1.95;;;0.43;;
7515;SDS011;3799;47.184;8.538;2024-01-06T14:37:11;1.17;;;0.28;;
7515;SDS011;3799;47.184;8.538;2024-01-06T14:39:38;0.85;;;0.20;;
7515;SDS011;3799;47.184;8.538;2024-01-06T14:42:06;0.30;;;0.10;;
7515;SDS011;3799;47.184;8.538;2024-01-06T14:44:33;1.20;;;0.22;;
7515;SDS011;3799;47.184;8.538;2024-01-06T14:47:00;0.93;;;0.20;;
7515;SDS011;3799;47.184;8.538;2024-01-06T14:49:27;0.93;;;0.28;;
7515;SDS011;3799;47.184;8.538;2024-01-06T14:51:55;0.75;;;0.20;;
7515;SDS011;3799;47.184;8.538;2024-01-06T14:54:22;0.90;;;0.28;;
7515;SDS011;3799;47.184;8.538;2024-01-06T14:56:49;1.40;;;0.32;;
7515;SDS011;3799;47.184;8.538;2024-01-06T14:59:17;1.25;;;0.20;;
7515;SDS011;3799;47.184;8.538;2024-01-06T15:01:46;0.95;;;0.20;;
7515;SDS011;3799;47.184;8.538;2024-01-06T15:04:14;0.50;;;0.10;;
7515;SDS011;3799;47.184;8.538;2024-01-06T15:06:42;3.10;;;0.32;;
7515;SDS011;3799;47.184;8.538;2024-01-06T15:09:10;0.32;;;0.13;;
7515;SDS011;3799;47.184;8.538;2024-01-06T15:11:37;0.80;;;0.20;;
7515;SDS011;3799;47.184;8.538;2024-01-06T15:14:05;1.63;;;0.45;;
7515;SDS011;3799;47.184;8.538;2024-01-06T15:19:03;2.50;;;0.30;;
7515;SDS011;3799;47.184;8.538;2024-01-06T15:21:31;0.57;;;0.25;;
7515;SDS011;3799;47.184;8.538;2024-01-06T15:24:00;1.05;;;0.30;;
7515;SDS011;3799;47.184;8.538;2024-01-06T15:26:28;0.68;;;0.17;;
7515;SDS011;3799;47.184;8.538;2024-01-06T15:28:55;14.82;;;2.38;;
7515;SDS011;3799;47.184;8.538;2024-01-06T15:31:25;4.03;;;0.50;;